This is the latest recevied weather packets stored in our database for station/object YO8RXT-3. If no packets are shown the sender has not sent any weather packets the latest 10 day(s).
| Time | Temp. | Humidity | Pressure | Rain* | Wind** | Luminosity | Snow |
|---|---|---|---|---|---|---|---|
| 1778141103 | 22.22° C | 33% | 1016 hPa | - | - | - | - |
| 1778139303 | 21.11° C | 35% | 1016 hPa | - | - | - | - |
| 1778137502 | 18.89° C | 46% | 1016 hPa | - | - | - | - |
| 1778135703 | 17.22° C | 52% | 1016 hPa | - | - | - | - |
| 1778133902 | 16.11° C | 55% | 1016 hPa | - | - | - | - |
| 1778132102 | 15° C | 59% | 1016 hPa | - | - | - | - |
| 1778130302 | 12.78° C | 63% | 1015 hPa | - | - | - | - |
| 1778128503 | 12.22° C | 67% | 1015 hPa | - | - | - | - |
| 1778126702 | 12.22° C | 67% | 1015 hPa | - | - | - | - |
| 1778124902 | 11.11° C | 67% | 1015 hPa | - | - | - | - |
| 1778123103 | 10° C | 71% | 1015 hPa | - | - | - | - |
| 1778121302 | 10° C | 71% | 1015 hPa | - | - | - | - |
| 1778119503 | 11.11° C | 67% | 1014 hPa | - | - | - | - |
| 1778117702 | 12.78° C | 55% | 1014 hPa | - | - | - | - |
| 1778115903 | 13.89° C | 48% | 1014 hPa | - | - | - | - |
| 1778114102 | 13.89° C | 48% | 1015 hPa | - | - | - | - |
| 1778112303 | 13.89° C | 48% | 1015 hPa | - | - | - | - |
| 1778110503 | 15° C | 45% | 1015 hPa | - | - | - | - |
| 1778108703 | 17.22° C | 42% | 1015 hPa | - | - | - | - |
| 1778106903 | 16.11° C | 48% | 1014 hPa | - | - | - | - |
| 1778105103 | 17.22° C | 49% | 1015 hPa | - | - | - | - |
| 1778103303 | 17.22° C | 49% | 1014 hPa | - | - | - | - |
| 1778101502 | 17.78° C | 46% | 1014 hPa | - | - | - | - |
| 1778099703 | 17.78° C | 46% | 1014 hPa | - | - | - | - |
| 1778097902 | 18.89° C | 43% | 1014 hPa | - | - | - | - |
* Rain since midnight (hover to see other rain measurements)
** Current wind speed in m/s (hover to see current wind gust speed)